createdAt,value
2018-01-17T00:01:34.978Z,86.42
2018-01-17T00:04:02.454Z,87.04
2018-01-17T00:06:29.898Z,87.45
2018-01-17T00:08:57.347Z,88.20
2018-01-17T00:11:24.811Z,88.49
2018-01-17T00:13:52.294Z,88.40
2018-01-17T00:16:19.766Z,88.24
2018-01-17T00:18:47.217Z,88.68
2018-01-17T00:21:14.713Z,89.09
2018-01-17T00:23:42.163Z,88.81
2018-01-17T00:26:09.622Z,88.83
2018-01-17T00:28:37.070Z,88.70
2018-01-17T00:31:04.542Z,88.79
2018-01-17T00:33:31.985Z,88.49
2018-01-17T00:35:59.463Z,88.05
2018-01-17T00:38:26.997Z,87.74
2018-01-17T00:40:54.476Z,86.90
2018-01-17T00:43:21.917Z,86.20
2018-01-17T00:45:49.406Z,85.68
2018-01-17T00:48:16.854Z,86.27
2018-01-17T00:50:44.318Z,85.91
2018-01-17T00:53:11.775Z,86.47
2018-01-17T00:55:39.258Z,86.55
2018-01-17T00:58:06.706Z,87.27
2018-01-17T01:00:34.174Z,87.15
2018-01-17T01:03:01.621Z,85.55
2018-01-17T01:05:29.092Z,85.18
2018-01-17T01:07:56.542Z,85.24
2018-01-17T01:10:24.011Z,84.55
2018-01-17T01:12:51.473Z,84.41
2018-01-17T01:15:18.955Z,83.57
2018-01-17T01:17:46.446Z,83.27
2018-01-17T01:20:13.939Z,83.03
2018-01-17T01:22:41.402Z,83.02
2018-01-17T01:25:08.870Z,83.04
2018-01-17T01:27:36.322Z,83.12
2018-01-17T01:30:03.794Z,83.38
2018-01-17T01:32:31.243Z,82.96
2018-01-17T01:34:58.690Z,84.74
2018-01-17T01:37:26.158Z,85.18
2018-01-17T01:39:53.611Z,86.27
2018-01-17T01:42:21.074Z,85.51
2018-01-17T01:44:48.523Z,84.53
2018-01-17T01:47:16.001Z,84.71
2018-01-17T01:49:43.453Z,83.92
2018-01-17T01:52:10.925Z,84.07
2018-01-17T01:54:38.370Z,83.10
2018-01-17T01:57:05.838Z,83.00
2018-01-17T01:59:33.293Z,82.35
2018-01-17T02:02:00.802Z,82.09
2018-01-17T02:04:28.250Z,80.77
2018-01-17T02:06:55.719Z,80.66
2018-01-17T02:09:23.173Z,80.45
2018-01-17T02:11:50.647Z,80.13
2018-01-17T02:14:18.106Z,78.92
2018-01-17T02:16:45.578Z,79.05
2018-01-17T02:19:13.034Z,79.15
2018-01-17T02:21:40.503Z,78.57
2018-01-17T02:24:07.951Z,79.42
2018-01-17T02:26:35.418Z,79.63
2018-01-17T02:29:02.871Z,80.09
2018-01-17T02:31:30.352Z,78.25
2018-01-17T02:33:57.860Z,77.56
2018-01-17T02:36:25.334Z,78.49
2018-01-17T02:38:52.787Z,78.58
2018-01-17T02:41:20.254Z,78.37
2018-01-17T02:43:47.706Z,78.64
2018-01-17T02:46:15.219Z,79.37
2018-01-17T02:48:42.651Z,78.67
2018-01-17T02:51:10.150Z,78.11
2018-01-17T02:53:37.598Z,77.53
2018-01-17T02:56:05.047Z,77.41
2018-01-17T02:58:32.523Z,78.04
2018-01-17T03:00:59.970Z,77.34
2018-01-17T03:03:27.439Z,76.73
2018-01-17T03:05:54.892Z,76.95
2018-01-17T03:08:22.366Z,77.75
2018-01-17T03:10:49.831Z,76.88
2018-01-17T03:13:17.299Z,77.39
2018-01-17T03:15:44.751Z,77.10
2018-01-17T03:18:12.219Z,76.84
2018-01-17T03:20:39.666Z,77.63
2018-01-17T03:23:07.165Z,75.91
2018-01-17T03:25:34.619Z,76.16
2018-01-17T03:28:02.087Z,76.40
2018-01-17T03:30:29.538Z,75.62
2018-01-17T03:32:57.010Z,74.84
2018-01-17T03:35:24.467Z,75.11
2018-01-17T03:37:51.936Z,74.69
2018-01-17T03:40:19.379Z,75.44
2018-01-17T03:42:46.849Z,75.84
2018-01-17T03:45:14.305Z,75.19
2018-01-17T03:47:41.770Z,74.63
2018-01-17T03:50:09.222Z,74.58
2018-01-17T03:52:36.691Z,76.08
2018-01-17T03:55:04.152Z,75.83
2018-01-17T03:57:31.627Z,75.44
2018-01-17T03:59:59.075Z,74.86
2018-01-17T04:02:26.580Z,73.93
2018-01-17T04:04:54.058Z,74.43
2018-01-17T04:07:21.533Z,74.44
2018-01-17T04:09:48.977Z,75.29
2018-01-17T04:12:16.447Z,75.13
2018-01-17T04:14:43.895Z,75.39
2018-01-17T04:17:11.371Z,75.67
2018-01-17T04:19:38.822Z,76.10
2018-01-17T04:22:06.366Z,75.89
2018-01-17T04:24:33.838Z,76.44
2018-01-17T04:27:01.290Z,77.11
2018-01-17T04:29:28.760Z,79.87
2018-01-17T04:31:56.214Z,83.01
2018-01-17T04:34:23.691Z,83.72
2018-01-17T04:36:51.138Z,83.80
2018-01-17T04:39:18.607Z,83.35
2018-01-17T04:41:46.058Z,83.28
2018-01-17T04:44:13.530Z,82.13
2018-01-17T04:46:40.974Z,80.80
2018-01-17T04:49:08.447Z,80.21
2018-01-17T04:51:35.899Z,79.41
2018-01-17T04:54:03.464Z,78.73
2018-01-17T04:56:30.915Z,78.95
2018-01-17T04:58:58.382Z,76.36
2018-01-17T05:01:25.835Z,75.86
2018-01-17T05:03:53.306Z,76.37
2018-01-17T05:06:20.750Z,75.40
2018-01-17T05:08:48.222Z,74.83
2018-01-17T05:11:15.678Z,76.98
2018-01-17T05:13:43.186Z,87.04
2018-01-17T05:16:10.638Z,90.39
2018-01-17T05:18:38.107Z,91.56
2018-01-17T05:21:05.561Z,92.18
2018-01-17T05:23:33.027Z,92.54
2018-01-17T05:26:00.475Z,92.72
2018-01-17T05:28:27.948Z,92.74
2018-01-17T05:30:55.394Z,92.56
2018-01-17T05:33:22.876Z,92.54
2018-01-17T05:35:50.334Z,92.76
2018-01-17T05:38:17.813Z,93.28
2018-01-17T05:40:45.254Z,93.56
2018-01-17T05:43:12.703Z,93.60
2018-01-17T05:45:40.169Z,93.66
2018-01-17T05:48:07.765Z,93.58
2018-01-17T05:50:35.222Z,93.71
2018-01-17T05:53:02.662Z,93.83
2018-01-17T05:55:30.126Z,94.11
2018-01-17T05:57:57.574Z,94.37
2018-01-17T06:00:25.034Z,94.39
2018-01-17T06:02:52.478Z,94.50
2018-01-17T06:05:19.950Z,94.54
2018-01-17T06:07:47.408Z,94.44
2018-01-17T06:10:14.882Z,94.30
2018-01-17T06:12:42.337Z,94.13
2018-01-17T06:15:09.803Z,93.65
2018-01-17T06:17:37.253Z,92.89
2018-01-17T06:20:04.717Z,92.71
2018-01-17T06:22:32.213Z,92.10
2018-01-17T06:24:59.661Z,91.83
2018-01-17T06:27:27.106Z,92.01
2018-01-17T06:29:54.616Z,91.30
2018-01-17T06:32:22.071Z,91.82
2018-01-17T06:34:49.543Z,91.55
2018-01-17T06:37:16.997Z,91.21
2018-01-17T06:39:44.458Z,89.71
2018-01-17T06:42:11.942Z,89.27
2018-01-17T06:44:39.412Z,89.58
2018-01-17T06:47:06.868Z,88.37
2018-01-17T06:49:34.342Z,87.59
2018-01-17T06:52:01.795Z,87.24
2018-01-17T06:54:29.266Z,86.50
2018-01-17T06:56:56.721Z,86.45
2018-01-17T06:59:24.219Z,87.25
2018-01-17T07:01:51.671Z,87.48
2018-01-17T07:04:19.128Z,87.45
2018-01-17T07:06:46.615Z,88.62
2018-01-17T07:09:14.068Z,87.84
2018-01-17T07:11:41.548Z,89.73
2018-01-17T07:14:09.034Z,91.75
2018-01-17T07:16:36.498Z,93.17
2018-01-17T07:19:04.109Z,94.20
2018-01-17T07:21:31.575Z,94.54
2018-01-17T07:23:59.022Z,94.81
2018-01-17T07:26:26.488Z,94.91
2018-01-17T07:28:53.938Z,95.06
2018-01-17T07:31:21.408Z,95.24
2018-01-17T07:33:48.855Z,95.46
2018-01-17T07:36:16.327Z,95.62
2018-01-17T07:38:43.775Z,95.67
2018-01-17T07:41:11.246Z,95.63
2018-01-17T07:43:38.693Z,95.54
2018-01-17T07:46:06.159Z,95.42
2018-01-17T07:48:33.607Z,95.27
2018-01-17T07:51:01.079Z,95.00
2018-01-17T07:53:28.535Z,94.70
2018-01-17T07:55:56.009Z,94.37
2018-01-17T07:58:23.475Z,94.03
2018-01-17T08:00:50.950Z,93.75
2018-01-17T08:03:18.407Z,93.49
2018-01-17T08:05:45.886Z,93.15
2018-01-17T08:08:13.355Z,92.43
2018-01-17T08:10:40.822Z,90.63
2018-01-17T08:13:08.271Z,88.80
2018-01-17T08:15:35.738Z,87.55
2018-01-17T08:18:03.247Z,87.25
2018-01-17T08:20:30.724Z,87.36
2018-01-17T08:22:58.185Z,87.70
2018-01-17T08:25:25.818Z,88.33
2018-01-17T08:27:53.278Z,88.11
2018-01-17T08:30:20.738Z,86.54
2018-01-17T08:32:48.206Z,85.71
2018-01-17T08:35:15.657Z,84.51
2018-01-17T08:37:43.130Z,84.25
2018-01-17T08:40:10.583Z,82.74
2018-01-17T08:42:38.053Z,84.17
2018-01-17T08:45:05.509Z,84.57
2018-01-17T08:47:32.982Z,84.45
2018-01-17T08:50:00.431Z,83.75
2018-01-17T08:52:27.905Z,83.92
2018-01-17T08:54:55.358Z,82.93
2018-01-17T08:57:22.827Z,83.95
2018-01-17T08:59:50.282Z,83.52
2018-01-17T09:02:17.810Z,82.99
2018-01-17T09:04:45.272Z,82.59
2018-01-17T09:07:12.743Z,82.47
2018-01-17T09:09:40.197Z,81.59
2018-01-17T09:12:07.666Z,82.66
2018-01-17T09:14:35.121Z,84.09
2018-01-17T09:17:02.598Z,83.95
2018-01-17T09:19:30.055Z,84.68
2018-01-17T09:21:57.527Z,84.39
2018-01-17T09:24:24.987Z,82.46
2018-01-17T09:26:52.459Z,81.50
2018-01-17T09:29:19.915Z,81.79
2018-01-17T09:31:47.394Z,82.76
2018-01-17T09:34:14.971Z,83.22
2018-01-17T09:36:42.466Z,83.96
2018-01-17T09:39:09.919Z,84.92
2018-01-17T09:41:37.390Z,85.82
2018-01-17T09:44:04.842Z,85.92
2018-01-17T09:46:32.322Z,86.70
2018-01-17T09:48:59.782Z,86.58
2018-01-17T09:51:27.237Z,86.76
2018-01-17T09:53:54.703Z,86.62
2018-01-17T09:56:22.154Z,86.50
2018-01-17T09:58:49.622Z,85.77
2018-01-17T10:01:17.071Z,84.47
2018-01-17T10:03:44.537Z,84.47
2018-01-17T10:06:11.994Z,83.56
2018-01-17T10:08:39.474Z,83.52
2018-01-17T10:11:06.923Z,82.53
2018-01-17T10:13:34.394Z,82.38
2018-01-17T10:16:01.848Z,82.54
2018-01-17T10:18:29.314Z,81.85
2018-01-17T10:20:56.763Z,79.91
2018-01-17T10:23:24.238Z,78.89
2018-01-17T10:25:51.695Z,79.92
2018-01-17T10:28:19.164Z,79.71
2018-01-17T10:30:46.615Z,80.04
2018-01-17T10:33:14.082Z,80.92
2018-01-17T10:35:41.847Z,79.29
2018-01-17T10:38:09.324Z,78.18
2018-01-17T10:40:36.783Z,79.47
2018-01-17T10:43:04.283Z,78.96
2018-01-17T10:45:31.738Z,78.65
2018-01-17T10:48:00.048Z,79.21
2018-01-17T10:50:27.507Z,80.01
2018-01-17T10:52:54.984Z,79.67
2018-01-17T10:55:22.463Z,80.16
2018-01-17T10:57:49.930Z,82.62
2018-01-17T11:00:17.378Z,87.01
2018-01-17T11:02:44.842Z,88.68
2018-01-17T11:05:12.299Z,89.60
2018-01-17T11:07:39.770Z,89.65
2018-01-17T11:10:07.213Z,89.17
2018-01-17T11:12:34.695Z,87.87
2018-01-17T11:15:02.153Z,86.51
2018-01-17T11:17:29.606Z,85.64
2018-01-17T11:19:57.071Z,84.72
2018-01-17T11:22:24.615Z,83.52
2018-01-17T11:24:52.082Z,83.05
2018-01-17T11:27:19.531Z,80.89
2018-01-17T11:29:47.003Z,79.94
2018-01-17T11:32:14.459Z,80.45
2018-01-17T11:34:41.952Z,82.17
2018-01-17T11:37:09.399Z,84.13
2018-01-17T11:39:36.875Z,85.42
2018-01-17T11:42:04.351Z,85.35
2018-01-17T11:44:31.826Z,85.21
2018-01-17T11:46:59.294Z,84.54
2018-01-17T11:49:26.791Z,84.62
2018-01-17T11:51:54.251Z,84.11
2018-01-17T11:54:21.718Z,82.95
2018-01-17T11:56:49.175Z,82.55
2018-01-17T11:59:16.654Z,81.97
2018-01-17T12:01:44.116Z,80.96
2018-01-17T12:04:11.588Z,79.82
2018-01-17T12:06:39.039Z,78.88
2018-01-17T12:09:06.502Z,79.04
2018-01-17T12:11:33.959Z,79.64
2018-01-17T12:14:01.440Z,79.07
2018-01-17T12:16:28.922Z,78.72
2018-01-17T12:18:56.404Z,78.98
2018-01-17T12:21:23.859Z,79.09
2018-01-17T12:23:51.335Z,79.19
2018-01-17T12:26:18.785Z,78.73
2018-01-17T12:28:46.255Z,78.34
2018-01-17T12:31:13.707Z,78.20
2018-01-17T12:33:41.179Z,78.83
2018-01-17T12:36:08.623Z,78.94
2018-01-17T12:38:36.103Z,80.04
2018-01-17T12:41:03.550Z,80.33
2018-01-17T12:43:30.998Z,80.64
2018-01-17T12:45:58.471Z,78.99
2018-01-17T12:48:26.508Z,78.30
2018-01-17T12:50:53.999Z,76.98
2018-01-17T12:53:21.458Z,77.49
2018-01-17T12:55:48.935Z,76.32
2018-01-17T12:58:16.395Z,76.24
2018-01-17T13:00:43.870Z,74.68
2018-01-17T13:03:11.311Z,75.31
2018-01-17T13:05:38.774Z,74.37
2018-01-17T13:08:06.230Z,74.97
2018-01-17T13:10:33.705Z,74.30
2018-01-17T13:13:01.156Z,75.28
2018-01-17T13:15:28.632Z,74.83
2018-01-17T13:17:56.089Z,75.50
2018-01-17T13:20:23.551Z,76.44
2018-01-17T13:22:51.020Z,75.38
2018-01-17T13:25:18.498Z,74.82
2018-01-17T14:43:42.920Z,76.54
2018-01-17T14:46:10.388Z,76.94
2018-01-17T14:48:37.841Z,75.98
2018-01-17T14:51:05.311Z,76.54
2018-01-17T14:53:32.759Z,76.10
2018-01-17T14:56:00.222Z,76.22
2018-01-17T14:58:27.687Z,76.75
2018-01-17T15:00:55.162Z,78.23
2018-01-17T15:03:22.615Z,79.41
2018-01-17T15:05:50.078Z,80.39
2018-01-17T15:08:17.543Z,81.92
2018-01-17T15:10:45.019Z,82.95
2018-01-17T15:13:12.474Z,83.80
2018-01-17T15:15:39.946Z,83.13
2018-01-17T15:18:07.402Z,83.48
2018-01-17T15:20:34.878Z,83.79
2018-01-17T15:23:02.318Z,84.19
2018-01-17T15:25:29.800Z,84.46
2018-01-17T15:27:57.283Z,84.19
2018-01-17T15:30:24.759Z,83.80
2018-01-17T15:32:52.231Z,81.79
2018-01-17T15:35:19.678Z,81.60
2018-01-17T15:37:47.142Z,81.04
2018-01-17T15:40:14.599Z,79.48
2018-01-17T15:42:42.079Z,79.43
2018-01-17T15:45:09.539Z,79.59
2018-01-17T15:47:37.020Z,79.17
2018-01-17T15:50:04.477Z,78.11
2018-01-17T15:52:31.977Z,77.28
2018-01-17T15:54:59.444Z,77.67
2018-01-17T15:57:26.919Z,76.59
2018-01-17T15:59:54.374Z,76.68
2018-01-17T16:02:21.842Z,76.96
2018-01-17T16:04:49.295Z,77.17
2018-01-17T16:07:16.759Z,76.43
2018-01-17T16:09:44.230Z,76.54
2018-01-17T16:12:11.706Z,77.06
2018-01-17T16:14:39.172Z,76.25
2018-01-17T16:17:06.643Z,76.39
2018-01-17T16:19:34.094Z,76.45
2018-01-17T16:22:01.566Z,76.58
2018-01-17T16:24:29.014Z,76.36
2018-01-17T16:29:30.339Z,75.72
2018-01-17T16:31:57.821Z,75.68
2018-01-17T16:34:25.272Z,76.20
2018-01-17T16:36:52.735Z,75.55
2018-01-17T16:39:20.199Z,75.42
2018-01-17T16:41:47.662Z,74.87
2018-01-17T16:44:15.111Z,75.17
2018-01-17T16:46:42.590Z,76.09
2018-01-17T16:49:10.047Z,76.52
2018-01-17T16:51:37.511Z,77.14
2018-01-17T16:54:04.982Z,76.52
2018-01-17T16:56:32.445Z,76.98
2018-01-17T16:58:59.924Z,77.79
2018-01-17T17:01:27.379Z,78.61
2018-01-17T17:03:54.860Z,79.27
2018-01-17T17:06:22.324Z,80.10
2018-01-17T17:08:49.799Z,80.28
2018-01-17T17:11:17.258Z,80.83
2018-01-17T17:13:44.733Z,81.03
2018-01-17T17:16:12.183Z,81.14
2018-01-17T17:18:39.659Z,80.40
2018-01-17T17:21:07.133Z,80.10
2018-01-17T17:23:34.610Z,79.22
2018-01-17T17:26:02.068Z,78.58
2018-01-17T17:28:29.559Z,78.26
2018-01-17T17:30:57.006Z,77.13
2018-01-17T17:33:24.494Z,76.78
2018-01-17T17:35:51.950Z,76.48
2018-01-17T17:38:19.426Z,76.73
2018-01-17T17:40:46.891Z,76.10
2018-01-17T17:43:14.364Z,75.47
2018-01-17T17:45:41.811Z,75.03
2018-01-17T17:48:09.293Z,73.84
2018-01-17T17:50:36.844Z,73.21
2018-01-17T17:53:04.327Z,72.59
2018-01-17T17:55:31.809Z,72.18
2018-01-17T17:57:59.282Z,71.24
2018-01-17T18:00:26.732Z,71.21
2018-01-17T18:02:54.211Z,71.44
2018-01-17T18:05:21.683Z,71.15
2018-01-17T18:07:49.167Z,70.49
2018-01-17T18:10:16.643Z,70.35
2018-01-17T18:12:44.332Z,70.98
2018-01-17T18:15:11.804Z,70.87
2018-01-17T18:17:39.255Z,71.02
2018-01-17T18:20:06.732Z,71.62
2018-01-17T18:22:34.226Z,71.94
2018-01-17T18:25:01.726Z,72.02
2018-01-17T18:27:29.192Z,72.19
2018-01-17T18:29:56.670Z,71.54
2018-01-17T18:32:24.123Z,72.19
2018-01-17T18:34:51.632Z,71.87
2018-01-17T18:37:19.100Z,71.32
2018-01-17T18:39:46.579Z,71.16
2018-01-17T18:42:14.043Z,70.84
2018-01-17T18:44:41.511Z,71.23
2018-01-17T18:47:08.980Z,70.99
2018-01-17T18:49:36.446Z,71.62
2018-01-17T18:52:03.930Z,70.90
2018-01-17T18:54:31.404Z,70.53
2018-01-17T18:56:58.883Z,70.84
2018-01-17T18:59:26.353Z,71.12
2018-01-17T19:01:53.816Z,70.33
2018-01-17T19:04:21.283Z,70.56
2018-01-17T19:06:48.738Z,71.22
2018-01-17T19:09:16.205Z,71.17
2018-01-17T19:11:43.650Z,72.22
2018-01-17T19:14:11.131Z,72.45
2018-01-17T19:16:38.634Z,72.88
2018-01-17T19:19:06.119Z,73.24
2018-01-17T19:21:39.384Z,72.69
2018-01-17T19:24:07.547Z,73.46
2018-01-17T19:26:34.999Z,73.12
2018-01-17T19:29:02.477Z,73.09
2018-01-17T19:31:29.938Z,73.52
2018-01-17T19:33:57.426Z,73.32
2018-01-17T19:36:24.876Z,73.56
2018-01-17T19:38:52.369Z,73.02
2018-01-17T19:41:19.842Z,73.25
2018-01-17T19:43:47.311Z,73.73
2018-01-17T19:46:14.791Z,74.29
2018-01-17T19:48:42.251Z,74.04
2018-01-17T19:51:09.727Z,74.47
2018-01-17T19:53:37.183Z,74.55
2018-01-17T19:56:04.695Z,74.86
2018-01-17T19:58:32.153Z,74.68
2018-01-17T20:00:59.627Z,74.27
2018-01-17T20:03:27.116Z,74.70
2018-01-17T20:05:54.592Z,74.51
2018-01-17T20:08:22.055Z,74.33
2018-01-17T20:10:49.527Z,74.34
2018-01-17T20:13:16.988Z,74.42
2018-01-17T20:15:44.475Z,74.09
2018-01-17T20:18:11.928Z,74.31
2018-01-17T20:20:39.412Z,74.15
2018-01-17T20:23:07.841Z,73.95
2018-01-17T20:25:35.316Z,73.68
2018-01-17T20:28:02.777Z,73.58
2018-01-17T20:30:30.247Z,73.86
2018-01-17T20:32:57.754Z,73.72
2018-01-17T20:35:25.332Z,73.90
2018-01-17T20:37:52.798Z,73.37
2018-01-17T20:40:20.308Z,73.63
2018-01-17T20:42:47.810Z,73.06
2018-01-17T20:45:15.294Z,73.49
2018-01-17T20:47:42.769Z,73.54
2018-01-17T20:50:10.353Z,73.35
2018-01-17T20:52:37.814Z,73.82
2018-01-17T20:55:05.300Z,73.55
2018-01-17T20:57:32.769Z,73.89
2018-01-17T21:00:00.250Z,74.08
2018-01-17T21:02:27.719Z,74.15
2018-01-17T21:04:55.199Z,74.41
2018-01-17T21:07:22.679Z,74.94
2018-01-17T21:09:50.158Z,75.34
2018-01-17T21:12:17.647Z,75.50
2018-01-17T21:14:45.133Z,76.01
2018-01-17T21:17:12.648Z,76.39
2018-01-17T21:19:40.103Z,76.54
2018-01-17T21:22:07.590Z,77.04
2018-01-17T21:24:35.046Z,76.92
2018-01-17T21:27:02.524Z,76.30
2018-01-17T21:29:29.970Z,75.96
2018-01-17T21:31:57.458Z,76.33
2018-01-17T21:34:24.928Z,76.08
2018-01-17T21:36:52.508Z,76.16
2018-01-17T21:39:19.969Z,76.37
2018-01-17T21:41:47.443Z,75.96
2018-01-17T21:44:20.338Z,75.65
2018-01-17T21:46:48.594Z,75.70
2018-01-17T21:49:16.064Z,75.34
2018-01-17T21:51:43.530Z,75.43
2018-01-17T21:54:11.006Z,75.52
2018-01-17T21:56:38.482Z,75.31
2018-01-17T21:59:05.935Z,74.99
2018-01-17T22:01:33.414Z,75.06
2018-01-17T22:04:00.869Z,74.66
2018-01-17T22:06:28.351Z,75.26
2018-01-17T22:08:55.804Z,74.92
2018-01-17T22:11:23.275Z,75.07
2018-01-17T22:13:50.794Z,75.23
2018-01-17T22:16:18.277Z,75.09
2018-01-17T22:18:45.774Z,74.95
2018-01-17T22:21:13.247Z,75.23
2018-01-17T22:23:40.698Z,75.23
2018-01-17T22:26:08.156Z,75.38
2018-01-17T22:28:35.630Z,75.08
2018-01-17T22:31:03.141Z,75.07
2018-01-17T22:33:30.612Z,74.97
2018-01-17T22:35:58.066Z,74.80
2018-01-17T22:38:25.545Z,74.78
2018-01-17T22:40:52.994Z,74.70
2018-01-17T22:43:20.474Z,74.80
2018-01-17T22:45:47.932Z,74.85
2018-01-17T22:48:15.408Z,74.67
2018-01-17T22:50:42.872Z,74.86
2018-01-17T22:53:10.339Z,75.14
2018-01-17T22:55:37.794Z,73.93
2018-01-17T22:58:05.279Z,73.66
2018-01-17T23:00:32.746Z,74.24
2018-01-17T23:03:00.216Z,74.08
2018-01-17T23:05:27.678Z,74.76
2018-01-17T23:07:55.144Z,74.47
2018-01-17T23:10:22.613Z,74.61
2018-01-17T23:12:50.091Z,74.92
2018-01-17T23:15:17.545Z,75.16
2018-01-17T23:17:45.087Z,75.47
2018-01-17T23:20:12.538Z,74.93
2018-01-17T23:22:40.014Z,74.83
2018-01-17T23:25:07.470Z,75.21
2018-01-17T23:27:34.938Z,75.24
2018-01-17T23:30:02.432Z,75.30
2018-01-17T23:32:29.911Z,75.50
2018-01-17T23:34:57.364Z,75.46
2018-01-17T23:37:24.839Z,75.31
2018-01-17T23:39:52.428Z,75.27
2018-01-17T23:42:19.902Z,75.48
2018-01-17T23:44:47.351Z,75.54
2018-01-17T23:47:14.820Z,75.63
2018-01-17T23:49:42.275Z,76.05
2018-01-17T23:52:09.777Z,76.48
2018-01-17T23:54:37.287Z,77.00
2018-01-17T23:57:04.739Z,77.34
2018-01-17T23:59:32.235Z,77.31
